createdAt,value
2018-12-10T00:01:37.646Z,0.60
2018-12-10T00:04:05.347Z,0.40
2018-12-10T00:06:33.125Z,0.97
2018-12-10T00:09:00.806Z,0.80
2018-12-10T00:11:28.546Z,0.70
2018-12-10T00:13:56.251Z,0.70
2018-12-10T00:16:23.954Z,0.50
2018-12-10T00:18:51.882Z,0.60
2018-12-10T00:21:19.623Z,0.47
2018-12-10T00:23:47.367Z,0.80
2018-12-10T00:26:15.013Z,0.40
2018-12-10T00:28:42.732Z,0.73
2018-12-10T00:31:10.444Z,0.70
2018-12-10T00:33:38.163Z,0.40
2018-12-10T00:36:05.811Z,0.70
2018-12-10T00:38:33.579Z,0.53
2018-12-10T00:41:04.708Z,0.70
2018-12-10T00:43:32.436Z,0.63
2018-12-10T00:46:00.120Z,0.60
2018-12-10T00:48:27.848Z,1.00
2018-12-10T00:50:55.498Z,0.63
2018-12-10T00:53:23.172Z,0.50
2018-12-10T00:55:50.797Z,0.70
2018-12-10T00:58:18.551Z,0.60
2018-12-10T01:00:46.310Z,0.77
2018-12-10T01:03:13.942Z,0.70
2018-12-10T01:05:41.710Z,0.50
2018-12-10T01:08:09.418Z,0.53
2018-12-10T01:10:37.138Z,0.40
2018-12-10T01:13:04.756Z,0.60
2018-12-10T01:15:32.470Z,0.37
2018-12-10T01:18:00.174Z,0.50
2018-12-10T01:20:27.952Z,0.40
2018-12-10T01:22:55.785Z,0.40
2018-12-10T01:25:23.469Z,0.60
2018-12-10T01:27:51.262Z,0.53
2018-12-10T01:30:19.007Z,0.80
2018-12-10T01:32:46.755Z,0.47
2018-12-10T01:35:14.600Z,0.63
2018-12-10T01:37:42.369Z,0.60
2018-12-10T01:40:10.172Z,0.70
2018-12-10T01:42:37.924Z,0.80
2018-12-10T01:45:07.789Z,0.50
2018-12-10T01:47:35.514Z,0.67
2018-12-10T01:50:03.416Z,0.57
2018-12-10T01:52:31.182Z,0.60
2018-12-10T01:54:58.931Z,0.70
2018-12-10T01:57:26.691Z,0.70
2018-12-10T01:59:54.371Z,0.70
2018-12-10T02:02:22.064Z,0.73
2018-12-10T02:04:49.830Z,0.80
2018-12-10T02:07:17.619Z,0.90
2018-12-10T02:09:45.366Z,1.00
2018-12-10T02:12:13.052Z,1.27
2018-12-10T02:14:40.836Z,1.23
2018-12-10T02:17:08.534Z,1.30
2018-12-10T02:19:36.271Z,1.17
2018-12-10T02:22:04.154Z,1.10
2018-12-10T02:24:31.948Z,1.00
2018-12-10T02:26:59.694Z,0.93
2018-12-10T02:29:27.465Z,1.13
2018-12-10T02:31:55.191Z,1.00
2018-12-10T02:34:22.946Z,1.27
2018-12-10T02:36:50.667Z,1.20
2018-12-10T02:39:18.387Z,1.30
2018-12-10T02:41:46.156Z,1.33
2018-12-10T02:44:13.895Z,1.27
2018-12-10T02:46:41.631Z,1.40
2018-12-10T02:49:09.371Z,1.30
2018-12-10T02:51:37.071Z,1.10
2018-12-10T02:54:04.828Z,1.43
2018-12-10T02:56:32.571Z,1.40
2018-12-10T02:59:00.308Z,1.37
2018-12-10T03:01:28.030Z,1.23
2018-12-10T03:03:55.775Z,0.60
2018-12-10T03:06:24.151Z,0.50
2018-12-10T03:08:51.851Z,0.63
2018-12-10T03:11:19.636Z,0.50
2018-12-10T03:13:47.291Z,0.20
2018-12-10T03:16:15.010Z,0.37
2018-12-10T03:18:42.731Z,0.20
2018-12-10T03:21:10.496Z,0.20
2018-12-10T03:23:38.192Z,0.23
2018-12-10T03:26:05.936Z,0.50
2018-12-10T03:28:33.660Z,0.30
2018-12-10T03:31:01.375Z,0.30
2018-12-10T03:33:29.164Z,0.20
2018-12-10T03:35:56.897Z,0.27
2018-12-10T03:38:24.659Z,0.10
2018-12-10T03:40:52.393Z,0.20
2018-12-10T03:43:20.034Z,0.20
2018-12-10T03:45:51.712Z,0.67
2018-12-10T03:48:19.503Z,0.30
2018-12-10T03:50:47.210Z,0.43
2018-12-10T03:53:14.984Z,0.20
2018-12-10T03:55:42.819Z,0.40
2018-12-10T03:58:10.488Z,0.30
2018-12-10T04:00:38.223Z,0.20
2018-12-10T04:03:05.957Z,0.40
2018-12-10T04:05:33.675Z,0.93
2018-12-10T04:08:01.370Z,0.10
2018-12-10T04:10:29.125Z,0.40
2018-12-10T04:12:56.843Z,0.30
2018-12-10T04:15:24.528Z,0.30
2018-12-10T04:17:52.251Z,0.33
2018-12-10T04:20:19.953Z,0.70
2018-12-10T04:22:47.705Z,0.17
2018-12-10T04:25:15.491Z,0.30
2018-12-10T04:27:43.241Z,0.40
2018-12-10T04:30:10.932Z,0.27
2018-12-10T04:32:38.769Z,0.30
2018-12-10T04:35:06.492Z,0.30
2018-12-10T04:37:34.203Z,0.60
2018-12-10T04:40:01.869Z,0.30
2018-12-10T04:42:29.578Z,0.30
2018-12-10T04:44:57.303Z,0.27
2018-12-10T04:47:25.053Z,0.50
2018-12-10T04:49:52.702Z,0.30
2018-12-10T04:52:20.457Z,0.23
2018-12-10T04:54:48.166Z,0.40
2018-12-10T04:57:15.927Z,0.30
2018-12-10T04:59:43.599Z,1.03
2018-12-10T05:02:11.345Z,0.37
2018-12-10T05:04:39.031Z,0.27
2018-12-10T05:07:06.706Z,0.40
2018-12-10T05:09:34.491Z,0.40
2018-12-10T05:12:02.182Z,0.40
2018-12-10T05:14:29.972Z,0.40
2018-12-10T05:16:57.711Z,0.33
2018-12-10T05:19:25.455Z,0.37
2018-12-10T05:21:53.137Z,0.37
2018-12-10T05:24:20.883Z,0.30
2018-12-10T05:26:48.588Z,1.50
2018-12-10T05:29:16.305Z,0.50
2018-12-10T05:31:44.031Z,1.30
2018-12-10T05:34:11.774Z,0.80
2018-12-10T05:36:39.489Z,1.10
2018-12-10T05:39:07.289Z,1.03
2018-12-10T05:41:34.984Z,1.03
2018-12-10T05:44:02.691Z,1.10
2018-12-10T05:46:30.378Z,1.50
2018-12-10T05:48:58.138Z,1.27
2018-12-10T05:51:25.970Z,1.37
2018-12-10T05:53:53.611Z,1.30
2018-12-10T05:56:21.344Z,1.20
2018-12-10T05:58:49.074Z,1.13
2018-12-10T06:01:16.751Z,1.10
2018-12-10T06:03:44.506Z,1.60
2018-12-10T06:06:12.213Z,1.10
2018-12-10T06:08:39.929Z,1.20
2018-12-10T06:11:07.711Z,1.10
2018-12-10T06:13:35.411Z,1.00
2018-12-10T06:16:03.115Z,1.27
2018-12-10T06:18:30.819Z,1.07
2018-12-10T06:20:58.590Z,1.00
2018-12-10T06:23:26.342Z,1.20
2018-12-10T06:25:54.011Z,0.80
2018-12-10T06:28:21.767Z,0.90
2018-12-10T06:30:49.544Z,0.90
2018-12-10T06:33:17.259Z,0.77
2018-12-10T06:35:44.967Z,1.57
2018-12-10T06:38:12.622Z,1.20
2018-12-10T06:40:40.330Z,1.00
2018-12-10T06:43:08.090Z,1.20
2018-12-10T06:45:35.842Z,1.00
2018-12-10T06:48:03.489Z,1.30
2018-12-10T06:50:31.228Z,1.17
2018-12-10T06:52:59.011Z,0.80
2018-12-10T06:55:26.712Z,1.23
2018-12-10T06:57:54.470Z,1.00
2018-12-10T07:00:22.273Z,1.07
2018-12-10T07:02:49.947Z,1.77
2018-12-10T07:05:17.694Z,0.90
2018-12-10T07:07:45.389Z,1.10
2018-12-10T07:10:13.170Z,1.07
2018-12-10T07:12:40.952Z,1.07
2018-12-10T07:15:08.751Z,1.53
2018-12-10T07:17:36.486Z,1.57
2018-12-10T07:20:05.997Z,1.60
2018-12-10T07:22:33.672Z,1.40
2018-12-10T07:25:01.412Z,1.43
2018-12-10T07:27:29.125Z,1.03
2018-12-10T07:29:56.888Z,1.33
2018-12-10T07:32:24.560Z,1.53
2018-12-10T07:34:52.340Z,1.27
2018-12-10T07:37:20.065Z,1.23
2018-12-10T07:39:47.825Z,1.20
2018-12-10T07:42:15.554Z,1.20
2018-12-10T07:44:43.331Z,1.20
2018-12-10T07:47:11.012Z,0.97
2018-12-10T07:49:38.695Z,1.37
2018-12-10T07:52:06.447Z,1.20
2018-12-10T07:54:34.230Z,1.30
2018-12-10T07:57:01.972Z,1.37
2018-12-10T07:59:29.671Z,0.90
2018-12-10T08:01:57.555Z,1.00
2018-12-10T08:04:25.322Z,0.97
2018-12-10T08:06:53.086Z,1.17
2018-12-10T08:09:20.775Z,1.00
2018-12-10T08:11:48.445Z,1.50
2018-12-10T08:14:16.093Z,1.20
2018-12-10T08:16:43.842Z,0.90
2018-12-10T08:19:11.531Z,1.40
2018-12-10T08:21:39.250Z,1.10
2018-12-10T08:24:06.948Z,1.50
2018-12-10T08:26:34.696Z,1.40
2018-12-10T08:31:32.197Z,1.93
2018-12-10T08:33:59.986Z,1.20
2018-12-10T08:35:42.207Z,1.10
2018-12-10T08:36:27.751Z,0.83
2018-12-10T08:38:55.471Z,1.10
2018-12-10T08:41:23.143Z,1.50
2018-12-10T08:43:50.912Z,1.57
2018-12-10T08:46:18.667Z,1.17
2018-12-10T08:48:46.375Z,1.40
2018-12-10T08:51:14.354Z,1.67
2018-12-10T08:53:42.220Z,1.37
2018-12-10T08:56:09.884Z,1.20
2018-12-10T08:58:37.602Z,1.30
2018-12-10T09:01:05.356Z,1.13
2018-12-10T09:03:33.027Z,1.30
2018-12-10T09:06:00.770Z,1.00
2018-12-10T09:08:28.510Z,1.17
2018-12-10T09:10:56.187Z,1.20
2018-12-10T09:13:23.906Z,1.43
2018-12-10T09:15:51.601Z,1.77
2018-12-10T09:18:19.321Z,1.23
2018-12-10T09:20:47.099Z,1.13
2018-12-10T09:23:14.930Z,1.70
2018-12-10T09:25:42.651Z,1.40
2018-12-10T09:28:10.322Z,1.17
2018-12-10T09:30:38.019Z,1.43
2018-12-10T09:33:05.755Z,1.40
2018-12-10T09:35:33.531Z,1.70
2018-12-10T09:38:01.196Z,1.33
2018-12-10T09:40:28.948Z,1.70
2018-12-10T09:42:56.692Z,1.30
2018-12-10T09:45:24.391Z,1.40
2018-12-10T09:47:52.050Z,1.60
2018-12-10T09:50:19.778Z,1.60
2018-12-10T09:52:47.528Z,1.63
2018-12-10T09:55:15.303Z,1.40
2018-12-10T09:57:42.950Z,1.87
2018-12-10T10:00:10.973Z,1.37
2018-12-10T10:02:38.625Z,1.50
2018-12-10T10:05:06.623Z,1.47
2018-12-10T10:07:34.298Z,1.50
2018-12-10T10:10:02.025Z,1.53
2018-12-10T10:12:29.720Z,1.40
2018-12-10T10:14:57.424Z,1.27
2018-12-10T10:17:25.119Z,1.30
2018-12-10T10:19:52.817Z,1.17
2018-12-10T10:22:20.558Z,1.47
2018-12-10T10:24:48.263Z,1.30
2018-12-10T10:27:15.994Z,1.80
2018-12-10T10:29:43.781Z,1.37
2018-12-10T10:32:11.489Z,1.20
2018-12-10T10:34:39.248Z,1.60
2018-12-10T10:37:06.988Z,1.57
2018-12-10T10:39:34.607Z,1.63
2018-12-10T10:42:05.161Z,1.23
2018-12-10T10:44:32.845Z,1.60
2018-12-10T10:47:00.515Z,1.97
2018-12-10T10:49:28.189Z,1.47
2018-12-10T10:51:55.938Z,1.53
2018-12-10T10:54:23.760Z,1.23
2018-12-10T10:56:51.467Z,1.37
2018-12-10T10:59:19.192Z,1.60
2018-12-10T11:01:52.588Z,1.50
2018-12-10T11:04:26.093Z,1.43
2018-12-10T11:06:53.855Z,1.63
2018-12-10T11:09:21.565Z,1.77
2018-12-10T11:11:49.337Z,1.30
2018-12-10T11:14:17.064Z,1.10
2018-12-10T11:16:44.747Z,1.10
2018-12-10T11:19:12.462Z,1.00
2018-12-10T11:21:40.146Z,0.90
2018-12-10T11:24:07.955Z,1.10
2018-12-10T11:26:35.671Z,1.63
2018-12-10T11:29:03.370Z,1.30
2018-12-10T11:31:31.096Z,1.00
2018-12-10T11:33:58.862Z,1.60
2018-12-10T11:36:26.590Z,1.33
2018-12-10T11:38:58.113Z,1.50
2018-12-10T11:41:23.947Z,1.17
2018-12-10T11:43:51.656Z,1.33
2018-12-10T11:46:19.391Z,1.20
2018-12-10T11:48:47.107Z,0.80
2018-12-10T11:51:14.829Z,1.00
2018-12-10T11:53:42.549Z,0.70
2018-12-10T11:56:10.282Z,0.90
2018-12-10T11:58:38.035Z,1.00
2018-12-10T12:01:05.753Z,0.90
2018-12-10T12:03:33.442Z,0.90
2018-12-10T12:06:01.189Z,0.80
2018-12-10T12:08:28.897Z,0.80
2018-12-10T12:10:56.648Z,0.73
2018-12-10T12:13:24.295Z,0.87
2018-12-10T12:15:51.993Z,1.00
2018-12-10T12:18:19.706Z,1.03
2018-12-10T12:20:47.452Z,1.00
2018-12-10T12:23:15.224Z,0.93
2018-12-10T12:25:42.885Z,1.40
2018-12-10T12:28:10.501Z,0.93
2018-12-10T12:30:38.222Z,1.10
2018-12-10T12:33:05.887Z,1.00
2018-12-10T12:35:33.592Z,1.03
2018-12-10T12:38:01.281Z,1.00
2018-12-10T12:40:28.991Z,0.93
2018-12-10T12:42:56.725Z,1.17
2018-12-10T12:45:24.353Z,0.90
2018-12-10T12:47:52.028Z,1.37
2018-12-10T12:50:19.766Z,0.90
2018-12-10T12:52:47.465Z,0.90
2018-12-10T12:55:15.203Z,1.10
2018-12-10T12:57:42.899Z,1.00
2018-12-10T13:00:14.412Z,1.10
2018-12-10T13:02:42.091Z,1.07
2018-12-10T13:05:09.769Z,1.00
2018-12-10T13:07:37.648Z,1.00
2018-12-10T13:10:06.114Z,0.90
2018-12-10T13:12:33.811Z,1.10
2018-12-10T13:15:01.443Z,1.53
2018-12-10T13:17:29.191Z,1.50
2018-12-10T13:19:56.858Z,1.10
2018-12-10T13:22:24.635Z,1.10
2018-12-10T13:24:52.288Z,1.10
2018-12-10T13:27:20.037Z,1.00
2018-12-10T13:29:47.990Z,1.53
2018-12-10T13:32:15.890Z,1.07
2018-12-10T13:34:43.595Z,1.10
2018-12-10T13:37:11.262Z,1.47
2018-12-10T13:39:39.010Z,0.97
2018-12-10T13:42:06.711Z,0.90
2018-12-10T13:44:34.471Z,1.10
2018-12-10T13:47:06.455Z,0.93
2018-12-10T13:49:34.131Z,1.23
2018-12-10T13:52:01.889Z,1.03
2018-12-10T13:54:29.630Z,0.93
2018-12-10T13:56:57.326Z,1.30
2018-12-10T13:59:25.021Z,1.50
2018-12-10T14:01:52.773Z,0.80
2018-12-10T14:04:22.598Z,1.20
2018-12-10T14:06:50.285Z,1.10
2018-12-10T14:09:18.050Z,0.93
2018-12-10T14:11:45.798Z,1.23
2018-12-10T14:14:13.517Z,1.30
2018-12-10T14:16:41.285Z,1.80
2018-12-10T14:19:09.025Z,0.93
2018-12-10T14:21:36.783Z,1.03
2018-12-10T14:24:04.501Z,1.10
2018-12-10T14:26:32.251Z,1.07
2018-12-10T14:28:59.995Z,1.40
2018-12-10T14:31:27.809Z,1.43
2018-12-10T14:34:06.428Z,1.20
2018-12-10T14:36:34.184Z,0.83
2018-12-10T14:39:01.977Z,0.93
2018-12-10T14:41:29.695Z,1.00
2018-12-10T14:43:57.407Z,0.80
2018-12-10T14:46:25.171Z,0.87
2018-12-10T14:48:52.916Z,1.40
2018-12-10T14:51:20.838Z,1.00
2018-12-10T14:53:48.548Z,0.60
2018-12-10T14:56:16.330Z,1.00
2018-12-10T14:58:44.096Z,0.90
2018-12-10T15:01:11.880Z,0.67
2018-12-10T15:03:39.604Z,0.60
2018-12-10T15:06:07.381Z,0.70
2018-12-10T15:08:35.099Z,0.53
2018-12-10T15:11:02.935Z,0.70
2018-12-10T15:13:31.572Z,1.00
2018-12-10T15:15:59.575Z,0.80
2018-12-10T15:18:27.427Z,0.70
2018-12-10T15:20:55.293Z,0.80
2018-12-10T15:23:23.070Z,0.70
2018-12-10T15:25:50.919Z,0.80
2018-12-10T15:28:18.771Z,1.23
2018-12-10T15:30:46.538Z,0.40
2018-12-10T15:33:14.351Z,1.20
2018-12-10T15:35:42.296Z,0.83
2018-12-10T15:38:10.091Z,0.93
2018-12-10T15:40:37.846Z,0.87
2018-12-10T15:43:05.609Z,0.60
2018-12-10T15:45:33.349Z,0.57
2018-12-10T15:48:01.231Z,1.00
2018-12-10T15:50:29.101Z,0.87
2018-12-10T15:52:56.934Z,0.80
2018-12-10T15:55:24.805Z,0.90
2018-12-10T15:57:52.672Z,0.93
2018-12-10T16:00:20.509Z,1.40
2018-12-10T16:02:48.263Z,0.87
2018-12-10T16:05:16.133Z,1.07
2018-12-10T16:07:43.951Z,1.13
2018-12-10T16:10:11.791Z,0.90
2018-12-10T16:12:39.624Z,1.10
2018-12-10T16:15:07.459Z,0.70
2018-12-10T16:17:35.392Z,0.83
2018-12-10T16:20:03.949Z,1.20
2018-12-10T16:22:31.743Z,1.30
2018-12-10T16:24:59.550Z,1.17
2018-12-10T16:27:27.437Z,1.20
2018-12-10T16:29:55.330Z,1.20
2018-12-10T16:32:23.187Z,1.10
2018-12-10T16:34:50.978Z,1.60
2018-12-10T16:37:18.826Z,1.07
2018-12-10T16:39:46.699Z,1.63
2018-12-10T16:42:14.561Z,1.30
2018-12-10T16:44:42.381Z,1.43
2018-12-10T16:47:10.159Z,1.30
2018-12-10T16:49:38.018Z,1.17
2018-12-10T16:52:05.864Z,1.67
2018-12-10T16:54:33.686Z,1.10
2018-12-10T16:57:01.607Z,1.00
2018-12-10T17:01:58.836Z,0.80
2018-12-10T17:04:26.806Z,1.17
2018-12-10T17:06:54.691Z,1.23
2018-12-10T17:09:22.800Z,1.37
2018-12-10T17:11:50.802Z,1.10
2018-12-10T17:14:18.890Z,1.40
2018-12-10T17:16:46.796Z,1.33
2018-12-10T17:19:14.610Z,1.23
2018-12-10T17:21:42.559Z,1.20
2018-12-10T17:24:10.446Z,1.83
2018-12-10T17:26:38.417Z,1.40
2018-12-10T17:29:06.263Z,1.50
2018-12-10T17:31:34.028Z,1.40
2018-12-10T17:34:01.911Z,1.33
2018-12-10T17:36:29.764Z,1.50
2018-12-10T17:39:01.312Z,1.50
2018-12-10T17:41:29.145Z,1.67
2018-12-10T17:43:57.052Z,1.63
2018-12-10T17:46:24.993Z,1.83
2018-12-10T17:48:52.847Z,1.70
2018-12-10T17:51:20.735Z,1.93
2018-12-10T17:53:48.820Z,1.80
2018-12-10T17:56:16.653Z,2.13
2018-12-10T17:58:44.663Z,2.50
2018-12-10T18:01:12.532Z,1.90
2018-12-10T18:03:40.322Z,1.70
2018-12-10T18:06:08.200Z,1.83
2018-12-10T18:08:36.051Z,1.70
2018-12-10T18:11:03.926Z,1.40
2018-12-10T18:13:31.718Z,1.57
2018-12-10T18:15:59.578Z,1.40
2018-12-10T18:18:27.352Z,1.70
2018-12-10T18:20:55.331Z,1.30
2018-12-10T18:23:23.171Z,1.40
2018-12-10T18:25:51.000Z,1.63
2018-12-10T18:28:20.259Z,1.60
2018-12-10T18:30:48.247Z,1.47
2018-12-10T18:33:16.131Z,1.73
2018-12-10T18:35:43.977Z,2.20
2018-12-10T18:38:11.803Z,1.80
2018-12-10T18:40:39.618Z,2.47
2018-12-10T18:43:07.428Z,1.73
2018-12-10T18:45:35.225Z,1.50
2018-12-10T18:48:03.092Z,1.60
2018-12-10T18:50:30.857Z,1.50
2018-12-10T18:52:58.751Z,1.50
2018-12-10T18:55:26.570Z,1.70
2018-12-10T18:57:54.451Z,1.50
2018-12-10T19:00:22.303Z,2.00
2018-12-10T19:02:50.146Z,1.80
2018-12-10T19:05:18.009Z,2.07
2018-12-10T19:07:45.857Z,1.30
2018-12-10T19:10:13.720Z,1.50
2018-12-10T19:12:41.583Z,2.20
2018-12-10T19:15:09.782Z,1.70
2018-12-10T19:17:37.672Z,1.70
2018-12-10T19:20:06.938Z,1.70
2018-12-10T19:22:34.759Z,1.73
2018-12-10T19:25:02.546Z,2.60
2018-12-10T19:27:30.444Z,2.73
2018-12-10T19:29:58.886Z,2.20
2018-12-10T19:32:26.771Z,2.10
2018-12-10T19:34:54.652Z,2.00
2018-12-10T19:37:22.511Z,2.30
2018-12-10T19:39:50.367Z,2.90
2018-12-10T19:42:18.206Z,2.30
2018-12-10T19:44:46.093Z,2.53
2018-12-10T19:47:15.468Z,2.30
2018-12-10T19:49:43.316Z,2.50
2018-12-10T19:52:11.065Z,2.80
2018-12-10T19:54:38.993Z,2.53
2018-12-10T19:57:06.880Z,2.80
2018-12-10T19:59:34.731Z,2.90
2018-12-10T20:02:02.606Z,2.60
2018-12-10T20:04:30.622Z,2.93
2018-12-10T20:07:04.183Z,3.17
2018-12-10T20:09:32.080Z,2.83
2018-12-10T20:11:59.976Z,2.57
2018-12-10T20:14:27.799Z,2.63
2018-12-10T20:16:55.692Z,2.80
2018-12-10T20:19:23.551Z,2.50
2018-12-10T20:21:51.411Z,3.00
2018-12-10T20:24:19.187Z,2.97
2018-12-10T20:26:47.028Z,2.63
2018-12-10T20:29:14.895Z,2.27
2018-12-10T20:31:42.728Z,1.90
2018-12-10T20:34:10.621Z,2.20
2018-12-10T20:36:38.461Z,2.10
2018-12-10T20:39:06.583Z,2.00
2018-12-10T20:41:34.600Z,1.90
2018-12-10T20:44:02.463Z,1.60
2018-12-10T20:46:30.321Z,1.67
2018-12-10T20:48:58.211Z,2.63
2018-12-10T20:51:27.140Z,1.73
2018-12-10T20:53:55.102Z,1.90
2018-12-10T20:56:22.975Z,2.13
2018-12-10T20:58:50.791Z,1.70
2018-12-10T21:01:18.619Z,1.50
2018-12-10T21:03:46.475Z,1.60
2018-12-10T21:06:19.720Z,1.83
2018-12-10T21:08:47.571Z,1.77
2018-12-10T21:11:15.392Z,1.60
2018-12-10T21:13:43.251Z,2.10
2018-12-10T21:16:11.071Z,2.23
2018-12-10T21:18:38.980Z,2.67
2018-12-10T21:21:06.823Z,2.17
2018-12-10T21:23:34.695Z,2.50
2018-12-10T21:26:02.662Z,2.30
2018-12-10T21:28:30.449Z,1.90
2018-12-10T21:30:59.102Z,2.20
2018-12-10T21:33:26.974Z,1.73
2018-12-10T21:35:54.798Z,1.83
2018-12-10T21:38:22.631Z,1.57
2018-12-10T21:40:50.512Z,1.80
2018-12-10T21:43:18.360Z,1.10
2018-12-10T21:45:46.212Z,1.50
2018-12-10T21:48:14.039Z,1.20
2018-12-10T21:50:41.884Z,1.70
2018-12-10T21:53:09.663Z,1.00
2018-12-10T21:55:37.458Z,0.93
2018-12-10T21:58:05.218Z,1.10
2018-12-10T22:00:32.925Z,1.50
2018-12-10T22:03:00.607Z,1.30
2018-12-10T22:08:34.585Z,1.30
2018-12-10T22:11:02.310Z,1.27
2018-12-10T22:13:30.011Z,1.10
2018-12-10T22:18:51.112Z,0.90
2018-12-10T22:21:18.860Z,0.80
2018-12-10T22:51:16.970Z,0.70
2018-12-10T22:53:44.691Z,0.90
2018-12-10T22:56:12.371Z,0.97
2018-12-10T23:01:14.062Z,0.80
2018-12-10T23:03:41.812Z,0.80
2018-12-10T23:06:09.491Z,0.90
2018-12-10T23:08:37.146Z,1.10
2018-12-10T23:11:04.931Z,0.93
2018-12-10T23:13:32.647Z,1.00
2018-12-10T23:16:00.343Z,1.20
2018-12-10T23:18:28.070Z,1.20
2018-12-10T23:20:55.780Z,1.40
2018-12-10T23:23:23.472Z,1.90
2018-12-10T23:25:51.270Z,1.83
2018-12-10T23:28:18.971Z,1.83
2018-12-10T23:30:46.595Z,2.30
2018-12-10T23:33:14.319Z,2.00
2018-12-10T23:35:42.050Z,2.27
2018-12-10T23:38:09.806Z,2.17
2018-12-10T23:40:37.448Z,2.60
2018-12-10T23:43:10.798Z,2.40
2018-12-10T23:45:38.479Z,2.40
2018-12-10T23:48:06.162Z,2.10
2018-12-10T23:50:33.934Z,2.80
2018-12-10T23:53:01.606Z,2.80
2018-12-10T23:55:29.330Z,2.53
2018-12-10T23:57:57.005Z,2.60
